createdAt,value
2022-11-23T00:01:33.683Z,26.10
2022-11-23T00:04:10.691Z,19.90
2022-11-23T00:06:38.097Z,18.58
2022-11-23T00:09:05.307Z,23.50
2022-11-23T00:11:35.506Z,21.98
2022-11-23T00:14:02.732Z,21.40
2022-11-23T00:16:30.771Z,26.23
2022-11-23T00:19:01.414Z,34.08
2022-11-23T00:21:31.178Z,29.48
2022-11-23T00:23:58.857Z,29.58
2022-11-23T00:26:25.881Z,23.20
2022-11-23T00:28:52.666Z,25.33
2022-11-23T00:31:21.199Z,27.55
2022-11-23T00:33:56.237Z,28.63
2022-11-23T00:36:25.255Z,25.17
2022-11-23T00:38:54.815Z,22.15
2022-11-23T00:41:24.745Z,30.15
2022-11-23T00:43:52.018Z,22.75
2022-11-23T00:46:25.088Z,22.83
2022-11-23T00:48:55.056Z,24.40
2022-11-23T00:51:25.639Z,30.02
2022-11-23T00:53:53.281Z,25.30
2022-11-23T00:56:20.972Z,33.15
2022-11-23T00:58:50.417Z,28.13
2022-11-23T01:01:20.157Z,25.77
2022-11-23T01:03:50.986Z,27.33
2022-11-23T01:06:36.503Z,26.75
2022-11-23T01:09:11.270Z,20.55
2022-11-23T01:11:38.033Z,20.85
2022-11-23T01:14:05.102Z,17.85
2022-11-23T01:16:36.892Z,23.80
2022-11-23T01:19:10.967Z,19.92
2022-11-23T01:21:38.336Z,16.57
2022-11-23T01:24:13.642Z,18.55
2022-11-23T01:26:41.931Z,23.20
2022-11-23T01:29:08.793Z,16.75
2022-11-23T01:31:35.563Z,19.48
2022-11-23T01:34:05.331Z,15.45
2022-11-23T01:36:34.934Z,19.90
2022-11-23T01:39:03.627Z,17.80
2022-11-23T01:41:41.822Z,16.73
2022-11-23T01:44:36.698Z,17.40
2022-11-23T01:47:07.177Z,21.77
2022-11-23T01:49:36.050Z,18.00
2022-11-23T01:52:13.636Z,20.98
2022-11-23T01:54:48.848Z,14.63
2022-11-23T01:57:24.051Z,18.17
2022-11-23T01:59:52.192Z,17.65
2022-11-23T02:02:19.267Z,18.02
2022-11-23T02:04:49.551Z,23.67
2022-11-23T02:07:18.937Z,21.88
2022-11-23T02:09:47.454Z,19.50
2022-11-23T02:12:15.353Z,24.13
2022-11-23T02:14:43.036Z,27.73
2022-11-23T02:17:09.930Z,26.42
2022-11-23T02:20:05.799Z,24.52
2022-11-23T02:22:48.032Z,25.45
2022-11-23T02:25:43.700Z,25.17
2022-11-23T02:30:49.966Z,41.60
2022-11-23T02:33:16.974Z,42.50
2022-11-23T02:35:59.298Z,49.78
2022-11-23T02:38:31.305Z,51.42
2022-11-23T02:40:58.365Z,53.53
2022-11-23T02:43:25.785Z,52.88
2022-11-23T02:46:04.902Z,51.67
2022-11-23T02:48:31.700Z,60.05
2022-11-23T02:50:58.459Z,60.70
2022-11-23T02:53:25.406Z,58.40
2022-11-23T02:55:52.351Z,60.42
2022-11-23T02:58:19.129Z,53.45
2022-11-23T03:00:45.981Z,53.63
2022-11-23T03:03:12.804Z,49.92
2022-11-23T03:05:39.542Z,56.50
2022-11-23T03:08:06.860Z,47.60
2022-11-23T03:10:34.070Z,44.50
2022-11-23T03:13:00.869Z,41.17
2022-11-23T03:15:28.671Z,33.20
2022-11-23T03:17:57.399Z,33.92
2022-11-23T03:20:24.146Z,29.35
2022-11-23T03:22:50.950Z,32.58
2022-11-23T03:25:17.776Z,30.65
2022-11-23T03:27:44.594Z,36.10
2022-11-23T03:30:11.734Z,29.75
2022-11-23T03:32:38.521Z,26.63
2022-11-23T03:35:06.289Z,28.98
2022-11-23T03:37:33.037Z,29.42
2022-11-23T03:39:59.846Z,28.48
2022-11-23T03:42:26.624Z,30.98
2022-11-23T03:44:53.370Z,31.15
2022-11-23T03:47:20.197Z,28.73
2022-11-23T03:49:47.234Z,29.23
2022-11-23T03:52:14.161Z,28.60
2022-11-23T03:54:40.918Z,19.48
2022-11-23T03:57:07.710Z,25.90
2022-11-23T03:59:34.816Z,30.20
2022-11-23T04:02:01.655Z,22.70
2022-11-23T04:04:28.426Z,27.20
2022-11-23T04:06:55.234Z,21.00
2022-11-23T04:09:22.068Z,15.20
2022-11-23T04:11:48.863Z,23.08
2022-11-23T04:14:16.001Z,14.85
2022-11-23T04:16:42.905Z,22.80
2022-11-23T04:19:09.775Z,18.70
2022-11-23T04:21:36.563Z,19.35
2022-11-23T04:24:03.780Z,23.08
2022-11-23T04:26:30.796Z,20.40
2022-11-23T04:28:57.526Z,19.50
2022-11-23T04:31:24.278Z,14.82
2022-11-23T04:33:51.053Z,20.42
2022-11-23T04:36:17.829Z,14.38
2022-11-23T04:38:44.607Z,10.00
2022-11-23T04:41:11.409Z,13.48
2022-11-23T04:43:38.198Z,19.35
2022-11-23T04:46:05.217Z,22.48
2022-11-23T04:48:32.287Z,17.85
2022-11-23T04:50:59.721Z,17.05
2022-11-23T04:53:26.790Z,20.77
2022-11-23T04:55:53.628Z,15.65
2022-11-23T04:58:20.566Z,12.60
2022-11-23T05:00:47.525Z,20.08
2022-11-23T05:03:14.425Z,17.48
2022-11-23T05:05:42.128Z,23.65
2022-11-23T05:08:10.255Z,16.77
2022-11-23T05:10:37.988Z,15.85
2022-11-23T05:13:05.320Z,19.52
2022-11-23T05:15:32.089Z,20.83
2022-11-23T05:18:04.701Z,13.43
2022-11-23T05:20:31.750Z,19.08
2022-11-23T05:22:58.747Z,17.75
2022-11-23T05:25:26.384Z,16.33
2022-11-23T05:27:53.556Z,16.17
2022-11-23T05:30:20.888Z,15.23
2022-11-23T05:32:47.626Z,16.88
2022-11-23T05:35:15.155Z,12.30
2022-11-23T05:37:42.494Z,18.33
2022-11-23T05:40:11.051Z,15.13
2022-11-23T05:42:37.895Z,17.95
2022-11-23T05:45:11.049Z,21.65
2022-11-23T05:47:38.851Z,21.20
2022-11-23T05:50:06.518Z,18.42
2022-11-23T05:52:33.664Z,17.48
2022-11-23T05:55:00.398Z,15.60
2022-11-23T05:57:27.133Z,17.83
2022-11-23T05:59:53.994Z,18.90
2022-11-23T06:02:20.740Z,20.27
2022-11-23T06:04:47.486Z,19.60
2022-11-23T06:07:14.568Z,19.95
2022-11-23T06:09:41.335Z,20.92
2022-11-23T06:12:08.367Z,14.57
2022-11-23T06:14:35.329Z,19.38
2022-11-23T06:17:02.088Z,14.55
2022-11-23T06:19:30.691Z,27.05
2022-11-23T06:21:58.207Z,21.08
2022-11-23T06:24:25.469Z,21.98
2022-11-23T06:26:53.442Z,20.35
2022-11-23T06:29:20.988Z,27.40
2022-11-23T06:31:47.986Z,27.33
2022-11-23T06:34:14.893Z,16.75
2022-11-23T06:36:41.848Z,21.90
2022-11-23T06:39:08.943Z,20.17
2022-11-23T06:41:36.061Z,16.08
2022-11-23T06:44:03.613Z,28.42
2022-11-23T06:46:30.393Z,23.17
2022-11-23T06:48:58.096Z,25.20
2022-11-23T06:51:24.966Z,20.13
2022-11-23T06:53:51.737Z,19.02
2022-11-23T06:56:18.582Z,20.73
2022-11-23T06:58:45.437Z,24.52
2022-11-23T07:01:12.366Z,22.65
2022-11-23T07:03:39.615Z,18.45
2022-11-23T07:06:11.156Z,21.67
2022-11-23T07:08:43.809Z,20.92
2022-11-23T07:11:11.971Z,18.77
2022-11-23T07:13:40.035Z,17.40
2022-11-23T07:16:07.687Z,23.30
2022-11-23T07:18:34.462Z,17.55
2022-11-23T07:21:01.377Z,18.75
2022-11-23T07:23:28.223Z,11.60
2022-11-23T07:25:55.471Z,17.15
2022-11-23T07:28:22.731Z,16.52
2022-11-23T07:30:52.450Z,16.90
2022-11-23T07:33:19.376Z,15.98
2022-11-23T07:35:46.291Z,13.68
2022-11-23T07:38:23.382Z,11.52
2022-11-23T07:40:51.441Z,10.05
2022-11-23T07:43:18.217Z,15.35
2022-11-23T07:45:44.995Z,15.18
2022-11-23T07:48:12.348Z,17.23
2022-11-23T07:50:40.278Z,15.07
2022-11-23T07:53:08.211Z,15.93
2022-11-23T07:55:35.229Z,12.68
2022-11-23T07:58:03.124Z,12.85
2022-11-23T08:00:30.601Z,18.23
2022-11-23T08:03:26.004Z,13.80
2022-11-23T08:05:46.827Z,11.30
2022-11-23T08:08:13.670Z,11.30
2022-11-23T08:10:46.112Z,15.63
2022-11-23T08:13:15.592Z,8.88
2022-11-23T08:15:42.387Z,10.70
2022-11-23T08:18:10.354Z,9.55
2022-11-23T08:20:37.145Z,6.65
2022-11-23T08:23:03.870Z,5.88
2022-11-23T08:25:31.196Z,8.48
2022-11-23T08:28:05.296Z,7.30
2022-11-23T08:30:33.848Z,6.13
2022-11-23T08:33:07.710Z,5.28
2022-11-23T08:35:39.944Z,4.68
2022-11-23T08:38:09.197Z,6.30
2022-11-23T08:40:37.034Z,6.20
2022-11-23T08:43:05.427Z,5.03
2022-11-23T08:45:32.351Z,5.97
2022-11-23T08:48:04.234Z,5.63
2022-11-23T08:50:34.610Z,5.00
2022-11-23T08:53:01.519Z,4.50
2022-11-23T08:55:29.321Z,6.85
2022-11-23T08:58:00.068Z,4.65
2022-11-23T09:00:27.966Z,3.00
2022-11-23T09:02:55.656Z,3.15
2022-11-23T09:05:22.627Z,3.20
2022-11-23T09:07:49.441Z,2.78
2022-11-23T09:10:18.989Z,1.13
2022-11-23T09:12:47.833Z,6.63
2022-11-23T09:15:15.091Z,7.20
2022-11-23T09:17:42.198Z,2.90
2022-11-23T09:20:10.439Z,3.33
2022-11-23T09:22:37.522Z,1.73
2022-11-23T09:25:06.848Z,5.05
2022-11-23T09:27:33.779Z,4.68
2022-11-23T09:30:00.537Z,6.20
2022-11-23T09:32:27.926Z,4.68
2022-11-23T09:34:54.700Z,3.15
2022-11-23T09:37:21.450Z,5.05
2022-11-23T09:39:48.323Z,24.80
2022-11-23T09:42:33.751Z,5.82
2022-11-23T09:45:21.436Z,2.33
2022-11-23T09:48:09.464Z,7.72
2022-11-23T09:50:48.520Z,11.70
2022-11-23T09:53:23.438Z,5.38
2022-11-23T09:58:22.510Z,33.88
2022-11-23T10:01:15.170Z,15.27
2022-11-23T10:03:48.876Z,8.25
2022-11-23T10:06:29.418Z,5.20
2022-11-23T10:09:27.447Z,8.27
2022-11-23T10:12:18.542Z,15.30
2022-11-23T10:15:04.339Z,19.02
2022-11-23T10:17:56.713Z,12.02
2022-11-23T10:20:57.147Z,8.40
2022-11-23T10:23:55.570Z,10.98
2022-11-23T10:26:33.108Z,22.30
2022-11-23T10:29:14.308Z,18.27
2022-11-23T10:31:47.369Z,10.95
2022-11-23T10:34:20.008Z,12.15
2022-11-23T10:36:46.780Z,9.48
2022-11-23T10:39:26.459Z,9.82
2022-11-23T10:41:54.940Z,14.48
2022-11-23T10:44:38.524Z,10.75
2022-11-23T10:47:05.687Z,14.27
2022-11-23T10:49:36.305Z,13.18
2022-11-23T10:52:10.117Z,12.30
2022-11-23T10:54:50.425Z,15.80
2022-11-23T10:57:33.935Z,12.52
2022-11-23T11:00:27.212Z,18.80
2022-11-23T11:02:58.873Z,17.20
2022-11-23T11:05:46.265Z,18.88
2022-11-23T11:08:17.509Z,14.65
2022-11-23T11:10:50.250Z,20.67
2022-11-23T11:13:42.829Z,19.00
2022-11-23T11:16:31.009Z,23.48
2022-11-23T11:18:58.165Z,25.15
2022-11-23T11:21:35.823Z,17.88
2022-11-23T11:24:04.921Z,19.15
2022-11-23T11:26:35.997Z,16.65
2022-11-23T11:29:10.638Z,15.88
2022-11-23T11:31:57.084Z,13.20
2022-11-23T11:34:35.696Z,20.88
2022-11-23T11:37:50.443Z,19.27
2022-11-23T11:40:38.125Z,16.67
2022-11-23T11:43:31.290Z,19.13
2022-11-23T11:46:32.295Z,14.85
2022-11-23T11:49:37.029Z,14.70
2022-11-23T11:52:11.243Z,21.35
2022-11-23T11:54:50.149Z,20.30
2022-11-23T11:57:43.058Z,22.17
2022-11-23T12:00:20.568Z,20.08
2022-11-23T12:03:34.298Z,18.85
2022-11-23T12:06:28.380Z,19.98
2022-11-23T12:09:17.227Z,22.00
2022-11-23T12:11:44.354Z,16.95
2022-11-23T12:14:15.738Z,25.30
2022-11-23T12:16:45.372Z,17.25
2022-11-23T12:19:32.307Z,18.17
2022-11-23T12:22:12.866Z,25.60
2022-11-23T12:25:14.428Z,30.52
2022-11-23T12:28:30.048Z,19.73
2022-11-23T12:31:23.771Z,18.13
2022-11-23T12:34:44.553Z,30.75
2022-11-23T12:37:27.046Z,21.00
2022-11-23T12:40:39.948Z,18.17
2022-11-23T12:43:16.355Z,20.80
2022-11-23T12:46:07.423Z,24.33
2022-11-23T12:49:05.922Z,27.70
2022-11-23T12:51:51.721Z,20.63
2022-11-23T12:54:36.370Z,15.07
2022-11-23T12:57:30.455Z,22.20
2022-11-23T13:00:07.594Z,12.20
2022-11-23T13:02:57.107Z,11.95
2022-11-23T13:05:57.892Z,10.40
2022-11-23T13:09:02.567Z,9.73
2022-11-23T13:12:03.805Z,7.03
2022-11-23T13:15:17.283Z,10.82
2022-11-23T13:18:33.541Z,7.88
2022-11-23T13:21:15.880Z,11.02
2022-11-23T13:23:42.734Z,6.68
2022-11-23T13:26:17.262Z,10.77
2022-11-23T13:28:47.056Z,7.95
2022-11-23T13:31:17.217Z,8.52
2022-11-23T13:33:50.009Z,9.65
2022-11-23T13:37:04.381Z,8.70
2022-11-23T13:39:45.371Z,6.93
2022-11-23T13:42:12.975Z,11.68
2022-11-23T13:44:40.467Z,7.30
2022-11-23T13:47:19.931Z,7.22
2022-11-23T13:49:51.459Z,8.05
2022-11-23T13:52:21.568Z,8.63
2022-11-23T13:55:08.827Z,5.80
2022-11-23T13:57:39.721Z,4.85
2022-11-23T14:00:44.297Z,3.38
2022-11-23T14:03:49.457Z,6.90
2022-11-23T14:06:35.030Z,2.90
2022-11-23T14:09:33.132Z,3.17
2022-11-23T14:12:35.254Z,2.90
2022-11-23T14:15:16.097Z,5.10
2022-11-23T14:18:07.916Z,4.43
2022-11-23T14:20:52.711Z,4.65
2022-11-23T14:23:55.594Z,5.72
2022-11-23T14:26:42.536Z,4.25
2022-11-23T14:29:32.365Z,4.10
2022-11-23T14:32:18.203Z,4.25
2022-11-23T14:34:54.894Z,4.68
2022-11-23T14:38:04.122Z,5.10
2022-11-23T14:41:08.260Z,7.53
2022-11-23T14:43:37.116Z,4.13
2022-11-23T14:46:07.391Z,7.85
2022-11-23T14:48:36.171Z,7.40
2022-11-23T14:51:12.146Z,6.38
2022-11-23T14:53:47.191Z,8.98
2022-11-23T14:56:34.491Z,6.35
2022-11-23T14:59:07.130Z,7.75
2022-11-23T15:01:35.571Z,7.82
2022-11-23T15:04:18.595Z,4.47
2022-11-23T15:06:50.796Z,5.53
2022-11-23T15:10:15.050Z,8.05
2022-11-23T15:12:45.677Z,7.10
2022-11-23T15:15:27.111Z,7.70
2022-11-23T15:18:02.821Z,8.65
2022-11-23T15:20:46.376Z,7.63
2022-11-23T15:23:22.562Z,8.15
2022-11-23T15:25:54.595Z,8.43
2022-11-23T15:28:28.347Z,15.65
2022-11-23T15:30:58.564Z,12.63
2022-11-23T15:33:26.368Z,12.52
2022-11-23T15:35:54.977Z,14.95
2022-11-23T15:38:23.787Z,10.80
2022-11-23T15:40:51.499Z,9.75
2022-11-23T15:43:19.903Z,9.25
2022-11-23T15:45:46.716Z,12.88
2022-11-23T15:48:42.688Z,12.73
2022-11-23T15:51:38.325Z,8.25
2022-11-23T15:54:06.422Z,14.18
2022-11-23T15:56:38.542Z,8.45
2022-11-23T15:59:50.691Z,15.32
2022-11-23T16:02:28.751Z,14.00
2022-11-23T16:05:24.179Z,11.27
2022-11-23T16:07:59.287Z,12.35
2022-11-23T16:10:28.315Z,16.77
2022-11-23T16:13:00.884Z,18.15
2022-11-23T16:15:27.677Z,13.90
2022-11-23T16:17:54.632Z,18.13
2022-11-23T16:20:24.967Z,16.80
2022-11-23T16:22:53.697Z,21.80
2022-11-23T16:25:29.953Z,23.23
2022-11-23T16:28:16.303Z,19.13
2022-11-23T16:30:46.558Z,28.08
2022-11-23T16:33:16.329Z,27.55
2022-11-23T16:35:43.189Z,26.98
2022-11-23T16:38:10.282Z,25.77
2022-11-23T16:40:37.415Z,25.58
2022-11-23T16:43:05.100Z,27.83
2022-11-23T16:45:33.360Z,27.23
2022-11-23T16:48:02.714Z,27.20
2022-11-23T16:50:33.205Z,26.95
2022-11-23T16:53:14.166Z,23.42
2022-11-23T16:55:43.768Z,25.48
2022-11-23T16:58:15.581Z,33.75
2022-11-23T17:00:45.863Z,27.65
2022-11-23T17:03:15.483Z,19.33
2022-11-23T17:05:42.410Z,29.92
2022-11-23T17:08:09.359Z,20.13
2022-11-23T17:10:40.908Z,24.30
2022-11-23T17:13:17.698Z,24.65
2022-11-23T17:15:44.478Z,18.75
2022-11-23T17:18:16.059Z,18.95
2022-11-23T17:20:43.026Z,18.40
2022-11-23T17:23:10.527Z,16.73
2022-11-23T17:25:38.621Z,17.50
2022-11-23T17:28:15.862Z,19.95
2022-11-23T17:30:43.096Z,20.33
2022-11-23T17:33:12.225Z,19.13
2022-11-23T17:35:41.394Z,15.20
2022-11-23T17:38:16.408Z,17.17
2022-11-23T17:40:43.477Z,15.73
2022-11-23T17:43:14.416Z,15.25
2022-11-23T17:45:42.413Z,13.68
2022-11-23T17:48:13.701Z,16.73
2022-11-23T17:50:40.576Z,14.30
2022-11-23T17:53:07.518Z,17.77
2022-11-23T17:55:34.332Z,16.35
2022-11-23T17:58:01.199Z,14.10
2022-11-23T18:00:29.890Z,15.63
2022-11-23T18:02:56.636Z,14.90
2022-11-23T18:05:23.374Z,20.08
2022-11-23T18:07:53.865Z,20.73
2022-11-23T18:10:20.927Z,24.48
2022-11-23T18:12:47.839Z,16.85
2022-11-23T18:15:15.178Z,21.95
2022-11-23T18:17:42.138Z,22.88
2022-11-23T18:20:10.443Z,20.67
2022-11-23T18:22:37.739Z,18.20
2022-11-23T18:25:04.992Z,22.33
2022-11-23T18:27:32.271Z,17.13
2022-11-23T18:29:59.039Z,18.70
2022-11-23T18:32:25.827Z,21.50
2022-11-23T18:34:52.623Z,19.35
2022-11-23T18:37:19.446Z,24.52
2022-11-23T18:39:46.454Z,22.17
2022-11-23T18:42:14.337Z,20.45
2022-11-23T18:44:41.187Z,22.02
2022-11-23T18:47:08.395Z,18.40
2022-11-23T18:49:35.359Z,17.90
2022-11-23T18:52:02.377Z,21.35
2022-11-23T18:54:29.288Z,15.90
2022-11-23T18:56:56.042Z,12.77
2022-11-23T19:02:11.242Z,9.15
2022-11-23T19:04:38.913Z,8.73
2022-11-23T19:07:06.328Z,6.05
2022-11-23T19:09:34.764Z,5.63
2022-11-23T19:12:02.177Z,9.05
2022-11-23T19:14:28.913Z,6.90
2022-11-23T19:16:55.690Z,6.43
2022-11-23T19:19:22.467Z,5.82
2022-11-23T19:21:49.729Z,9.10
2022-11-23T19:24:16.465Z,7.20
2022-11-23T19:26:43.302Z,6.10
2022-11-23T19:29:10.345Z,7.82
2022-11-23T19:31:37.246Z,10.02
2022-11-23T19:34:06.233Z,7.85
2022-11-23T19:36:36.678Z,5.53
2022-11-23T19:39:05.735Z,6.03
2022-11-23T19:41:32.928Z,5.30
2022-11-23T19:44:01.020Z,7.47
2022-11-23T19:46:30.264Z,6.43
2022-11-23T19:48:58.295Z,6.07
2022-11-23T19:51:26.754Z,6.68
2022-11-23T19:53:57.332Z,5.90
2022-11-23T19:56:26.349Z,4.82
2022-11-23T19:59:02.340Z,6.38
2022-11-23T20:01:32.321Z,4.22
2022-11-23T20:04:09.443Z,6.78
2022-11-23T20:06:39.665Z,4.38
2022-11-23T20:09:13.289Z,6.05
2022-11-23T20:11:42.417Z,6.57
2022-11-23T20:14:12.750Z,7.80
2022-11-23T20:16:40.002Z,5.95
2022-11-23T20:19:09.728Z,4.07
2022-11-23T20:21:37.681Z,5.93
2022-11-23T20:24:12.475Z,5.43
2022-11-23T20:26:41.087Z,6.35
2022-11-23T20:29:10.525Z,5.70
2022-11-23T20:31:38.387Z,11.60
2022-11-23T20:34:08.209Z,14.70
2022-11-23T20:36:38.645Z,10.23
2022-11-23T20:39:10.421Z,8.95
2022-11-23T20:41:38.358Z,10.80
2022-11-23T20:44:11.890Z,13.07
2022-11-23T20:49:26.637Z,12.63
2022-11-23T20:51:53.514Z,15.32
2022-11-23T20:54:20.250Z,12.43
2022-11-23T20:56:47.178Z,12.60
2022-11-23T20:59:14.148Z,10.00
2022-11-23T21:01:41.129Z,14.75
2022-11-23T21:04:09.232Z,14.45
2022-11-23T21:06:39.343Z,12.52
2022-11-23T21:09:11.365Z,9.88
2022-11-23T21:11:57.190Z,16.67
2022-11-23T21:14:28.085Z,12.55
2022-11-23T21:16:58.862Z,13.68
2022-11-23T21:19:39.830Z,14.02
2022-11-23T21:22:14.726Z,10.77
2022-11-23T21:27:12.688Z,14.23
2022-11-23T21:29:39.580Z,13.88
2022-11-23T21:32:06.630Z,10.52
2022-11-23T21:34:33.926Z,17.60
2022-11-23T21:37:01.354Z,13.02
2022-11-23T21:39:31.636Z,14.18
2022-11-23T21:41:58.977Z,12.93
2022-11-23T21:44:26.541Z,16.23
2022-11-23T21:46:53.493Z,13.25
2022-11-23T21:49:20.385Z,16.45
2022-11-23T21:51:48.707Z,10.70
2022-11-23T21:54:16.256Z,11.77
2022-11-23T21:56:44.954Z,13.45
2022-11-23T21:59:12.540Z,10.98
2022-11-23T22:01:40.723Z,14.85
2022-11-23T22:04:11.931Z,10.00
2022-11-23T22:06:40.416Z,13.13
2022-11-23T22:09:09.807Z,19.92
2022-11-23T22:11:39.608Z,14.65
2022-11-23T22:14:16.168Z,21.27
2022-11-23T22:16:49.788Z,12.82
2022-11-23T22:19:18.221Z,12.50
2022-11-23T22:21:46.329Z,14.23
2022-11-23T22:24:16.381Z,16.02
2022-11-23T22:26:44.229Z,18.60
2022-11-23T22:29:11.895Z,18.73
2022-11-23T22:31:38.924Z,14.10
2022-11-23T22:34:09.423Z,11.10
2022-11-23T22:36:36.446Z,22.70
2022-11-23T22:39:06.597Z,23.15
2022-11-23T22:41:36.804Z,19.40
2022-11-23T22:44:08.626Z,16.90
2022-11-23T22:46:36.901Z,21.45
2022-11-23T22:49:04.026Z,23.10
2022-11-23T22:51:30.820Z,17.40
2022-11-23T22:53:59.960Z,18.52
2022-11-23T22:56:28.926Z,30.70
2022-11-23T22:58:55.794Z,27.63
2022-11-23T23:01:26.972Z,42.55
2022-11-23T23:03:56.274Z,30.85
2022-11-23T23:06:26.477Z,23.73
2022-11-23T23:08:56.173Z,20.10
2022-11-23T23:11:24.725Z,23.27
2022-11-23T23:13:52.581Z,18.88
2022-11-23T23:16:20.571Z,21.67
2022-11-23T23:18:47.598Z,18.50
2022-11-23T23:21:20.623Z,17.00
2022-11-23T23:23:51.338Z,25.23
2022-11-23T23:26:21.814Z,18.95
2022-11-23T23:28:49.501Z,20.95
2022-11-23T23:31:17.431Z,17.58
2022-11-23T23:33:45.667Z,19.40
2022-11-23T23:36:16.034Z,19.95
2022-11-23T23:38:43.779Z,16.10
2022-11-23T23:41:12.582Z,17.08
2022-11-23T23:43:40.275Z,22.35
2022-11-23T23:46:11.256Z,17.90
2022-11-23T23:48:40.263Z,21.92
2022-11-23T23:51:10.418Z,25.65
2022-11-23T23:53:37.863Z,21.35
2022-11-23T23:56:08.833Z,21.42
2022-11-23T23:58:35.665Z,21.67
